Time;durP1;ratioP1;P1;durP2;ratioP2;P2;SDS_P1;SDS_P2;PMS_P1;PMS_P2;Temp;Humidity;BMP_temperature;BMP_pressure;BME280_temperature;BME280_humidity;BME280_pressure;Samples;Min_cycle;Max_cycle;Signal;HPM_P1;HPM_P2
2023/08/19 00:01:25;;;;;;;15.93;14.13;;;27.80;99.90;;;;;;5091933;28;20195;-33
2023/08/19 00:03:52;;;;;;;15.90;13.52;;;27.80;99.90;;;;;;5091959;28;20579;-32
2023/08/19 00:06:39;;;;;;;16.77;14.40;;;27.80;99.90;;;;;;5073904;28;20194;-32
2023/08/19 00:09:10;;;;;;;16.63;14.20;;;27.80;99.90;;;;;;5092140;28;20260;-32
2023/08/19 00:11:40;;;;;;;15.13;13.52;;;27.80;99.90;;;;;;5073389;28;20203;-32
2023/08/19 00:14:10;;;;;;;17.98;14.30;;;27.80;99.90;;;;;;5052547;28;20199;-32
2023/08/19 00:16:39;;;;;;;16.08;14.25;;;27.80;99.90;;;;;;5070288;28;20598;-32
2023/08/19 00:19:08;;;;;;;15.65;13.77;;;27.70;99.90;;;;;;5070495;28;20225;-34
2023/08/19 00:21:35;;;;;;;18.33;13.13;;;27.80;99.90;;;;;;5088414;28;20187;-31
2023/08/19 00:24:03;;;;;;;15.32;13.65;;;27.80;99.90;;;;;;5088365;28;20194;-32
2023/08/19 00:26:32;;;;;;;14.23;12.82;;;27.70;99.90;;;;;;5070478;28;20298;-32
2023/08/19 00:29:02;;;;;;;14.02;12.50;;;27.70;99.90;;;;;;5089215;28;20551;-32
2023/08/19 00:31:32;;;;;;;14.43;12.93;;;27.70;99.90;;;;;;5070146;28;20227;-30
2023/08/19 00:34:02;;;;;;;14.00;12.50;;;27.70;99.90;;;;;;5070071;28;20748;-32
2023/08/19 00:36:29;;;;;;;16.27;12.98;;;27.70;99.90;;;;;;5070560;28;20233;-32
2023/08/19 00:38:59;;;;;;;15.32;13.18;;;27.70;99.90;;;;;;5070410;28;20226;-32
2023/08/19 00:41:33;;;;;;;16.27;13.35;;;27.70;99.90;;;;;;5070662;28;20303;-32
2023/08/19 00:44:05;;;;;;;15.20;12.45;;;27.70;99.90;;;;;;5087859;28;20226;-33
2023/08/19 00:46:33;;;;;;;15.15;12.98;;;27.70;99.90;;;;;;5088643;28;20244;-32
2023/08/19 00:49:01;;;;;;;16.20;12.68;;;27.60;99.90;;;;;;5088430;28;20633;-32
2023/08/19 00:51:30;;;;;;;14.48;12.88;;;27.60;99.90;;;;;;5069852;28;20203;-32
2023/08/19 00:53:58;;;;;;;16.52;12.93;;;27.60;99.90;;;;;;5087949;28;20203;-32
2023/08/19 00:56:25;;;;;;;14.25;12.80;;;27.60;99.90;;;;;;5069000;28;20227;-33
2023/08/19 00:58:55;;;;;;;13.60;12.20;;;27.60;99.90;;;;;;5054446;28;20286;-33
2023/08/19 01:01:24;;;;;;;15.85;12.23;;;27.60;99.90;;;;;;5066705;28;20677;-32
2023/08/19 01:03:52;;;;;;;13.43;11.68;;;27.60;99.90;;;;;;5043504;28;20221;-32
2023/08/19 01:06:19;;;;;;;13.57;12.23;;;27.60;99.90;;;;;;5038728;28;20211;-32
2023/08/19 01:08:54;;;;;;;16.55;12.77;;;27.60;99.90;;;;;;5040455;28;20211;-32
2023/08/19 01:11:35;;;;;;;13.40;11.63;;;27.60;99.90;;;;;;5045672;28;20215;-32
2023/08/19 01:14:23;;;;;;;16.17;12.18;;;27.60;99.90;;;;;;5067691;28;20302;-32
2023/08/19 01:16:55;;;;;;;15.13;12.27;;;27.50;99.90;;;;;;5061884;28;20788;-32
2023/08/19 01:19:30;;;;;;;12.88;11.57;;;27.50;99.90;;;;;;5059252;28;20226;-33
2023/08/19 01:22:05;;;;;;;16.25;11.48;;;27.50;99.90;;;;;;5049626;28;20226;-33
2023/08/19 01:24:40;;;;;;;13.52;11.38;;;27.50;99.90;;;;;;5048758;28;20264;-33
2023/08/19 01:27:23;;;;;;;15.18;11.20;;;27.50;99.90;;;;;;5049322;28;20214;-33
2023/08/19 01:29:51;;;;;;;13.20;10.68;;;27.40;99.90;;;;;;5048964;28;20596;-33
2023/08/19 01:32:20;;;;;;;11.98;10.77;;;27.40;99.90;;;;;;5031441;28;20200;-32
2023/08/19 01:34:50;;;;;;;11.55;10.35;;;27.40;99.90;;;;;;5048290;28;20766;-33
2023/08/19 01:37:46;;;;;;;12.65;10.23;;;27.40;99.90;;;;;;5049178;28;20226;-33
2023/08/19 01:40:16;;;;;;;14.93;10.18;;;27.40;99.90;;;;;;5066706;28;20694;-33
2023/08/19 01:42:45;;;;;;;11.90;10.32;;;27.40;99.90;;;;;;5049398;28;20192;-32
2023/08/19 01:45:13;;;;;;;12.25;10.18;;;27.40;99.90;;;;;;5066566;28;20239;-32
2023/08/19 01:47:42;;;;;;;13.48;10.35;;;27.40;99.90;;;;;;5067004;28;20205;-33
2023/08/19 01:50:14;;;;;;;13.57;10.63;;;27.30;99.90;;;;;;5067111;28;20192;-33
2023/08/19 01:52:41;;;;;;;10.85;9.75;;;27.30;99.90;;;;;;5066774;28;20211;-32
2023/08/19 01:55:09;;;;;;;11.30;10.15;;;27.30;99.90;;;;;;5048474;28;20199;-32
2023/08/19 01:57:41;;;;;;;13.55;9.38;;;27.30;99.90;;;;;;5066208;28;20255;-33
2023/08/19 02:00:09;;;;;;;12.68;10.15;;;27.30;99.90;;;;;;5048856;28;21008;-33
2023/08/19 02:02:41;;;;;;;10.43;9.40;;;27.30;99.90;;;;;;5048959;28;20208;-33
2023/08/19 02:05:14;;;;;;;10.35;9.23;;;27.30;99.90;;;;;;5048443;28;20210;-32
2023/08/19 02:07:42;;;;;;;10.80;9.20;;;27.30;99.90;;;;;;5048410;28;20199;-32
2023/08/19 02:10:11;;;;;;;10.50;9.40;;;27.30;99.90;;;;;;5048415;28;21060;-32
2023/08/19 02:12:42;;;;;;;10.45;9.05;;;27.30;99.90;;;;;;5047933;28;20196;-32
2023/08/19 02:15:09;;;;;;;10.10;9.15;;;27.20;99.90;;;;;;5048073;28;20723;-32
2023/08/19 02:17:39;;;;;;;9.50;8.70;;;27.20;99.90;;;;;;5066193;28;20265;-33
2023/08/19 02:20:09;;;;;;;9.77;8.57;;;27.20;99.90;;;;;;5066030;28;20296;-33
2023/08/19 02:22:39;;;;;;;10.65;8.77;;;27.20;99.90;;;;;;5066059;28;20739;-33
2023/08/19 02:25:08;;;;;;;9.95;8.73;;;27.20;99.90;;;;;;5066494;28;20198;-33
2023/08/19 02:27:38;;;;;;;9.07;8.18;;;27.20;99.90;;;;;;5066135;28;20207;-33
2023/08/19 02:30:10;;;;;;;11.05;8.43;;;27.20;99.90;;;;;;5048190;28;20218;-32
2023/08/19 02:32:40;;;;;;;9.48;8.48;;;27.20;99.90;;;;;;5066366;28;20308;-32
2023/08/19 02:35:09;;;;;;;11.23;8.77;;;27.20;99.90;;;;;;5065890;28;20208;-32
2023/08/19 02:37:38;;;;;;;12.18;8.68;;;27.20;99.90;;;;;;5065665;28;20305;-32
2023/08/19 02:40:10;;;;;;;9.73;7.88;;;27.10;99.90;;;;;;5048141;28;20204;-32
2023/08/19 02:42:40;;;;;;;10.65;8.45;;;27.10;99.90;;;;;;5066305;28;20200;-32
2023/08/19 02:45:13;;;;;;;9.15;8.07;;;27.10;99.90;;;;;;5064169;28;20227;-32
2023/08/19 02:47:40;;;;;;;9.23;7.80;;;27.10;99.90;;;;;;5047369;28;20258;-32
2023/08/19 02:50:14;;;;;;;9.93;7.90;;;27.10;99.90;;;;;;5047925;28;20290;-32
2023/08/19 02:52:43;;;;;;;11.20;8.02;;;27.10;99.90;;;;;;5065829;28;20465;-32
2023/08/19 02:55:10;;;;;;;10.57;8.15;;;27.10;99.90;;;;;;5047499;28;20224;-32
2023/08/19 02:57:38;;;;;;;9.52;7.55;;;27.10;99.90;;;;;;5047708;28;20227;-32
2023/08/19 03:00:09;;;;;;;10.23;8.10;;;27.10;99.90;;;;;;5065848;28;20203;-32
2023/08/19 03:02:36;;;;;;;8.73;7.82;;;27.10;99.90;;;;;;5047878;28;20207;-32
2023/08/19 03:05:07;;;;;;;8.35;7.00;;;27.10;99.90;;;;;;5047599;28;20653;-32
2023/08/19 03:07:36;;;;;;;8.90;7.63;;;27.00;99.90;;;;;;5065429;28;20753;-32
2023/08/19 03:10:07;;;;;;;8.15;7.30;;;27.00;99.90;;;;;;5047779;28;20203;-32
2023/08/19 03:12:34;;;;;;;10.73;7.40;;;27.00;99.90;;;;;;5064190;28;20211;-32
2023/08/19 03:15:01;;;;;;;8.63;7.38;;;27.00;99.90;;;;;;5047706;28;20223;-24
2023/08/19 03:17:28;;;;;;;9.00;6.68;;;27.00;99.90;;;;;;5047365;28;20551;-24
2023/08/19 03:19:56;;;;;;;9.13;7.13;;;27.00;99.90;;;;;;5047453;28;20202;-24
2023/08/19 03:22:23;;;;;;;8.63;7.50;;;27.00;99.90;;;;;;5047173;28;20211;-24
2023/08/19 03:24:52;;;;;;;9.48;7.15;;;27.00;99.90;;;;;;5065467;28;20204;-23
2023/08/19 03:27:19;;;;;;;8.32;7.10;;;27.00;99.90;;;;;;5047609;28;20226;-24
2023/08/19 03:29:47;;;;;;;10.30;7.18;;;27.00;99.90;;;;;;5047552;28;20219;-24
2023/08/19 03:32:17;;;;;;;7.53;6.75;;;27.00;99.90;;;;;;5048214;28;20199;-24
2023/08/19 03:34:44;;;;;;;8.73;7.25;;;27.00;99.90;;;;;;5065193;28;20204;-23
2023/08/19 03:37:14;;;;;;;7.82;7.00;;;27.00;99.90;;;;;;5047989;28;20732;-23
2023/08/19 03:39:46;;;;;;;8.68;6.93;;;27.00;99.90;;;;;;5031801;28;20249;-23
2023/08/19 03:42:16;;;;;;;8.30;6.68;;;27.00;99.90;;;;;;5065009;28;20645;-23
2023/08/19 03:44:46;;;;;;;7.65;6.82;;;27.00;99.90;;;;;;5064960;28;20733;-24
2023/08/19 03:47:13;;;;;;;7.68;6.90;;;27.00;99.90;;;;;;5048411;28;20639;-24
2023/08/19 03:49:43;;;;;;;8.88;6.80;;;27.00;99.90;;;;;;5068987;28;20550;-24
2023/08/19 03:52:15;;;;;;;8.05;6.70;;;27.00;99.90;;;;;;5068762;28;20211;-23
2023/08/19 03:54:42;;;;;;;9.18;6.65;;;26.90;99.90;;;;;;5067298;28;20336;-23
2023/08/19 03:57:12;;;;;;;7.50;6.63;;;26.90;99.90;;;;;;5069144;28;20220;-23
2023/08/19 03:59:41;;;;;;;8.63;6.63;;;26.90;99.90;;;;;;5068904;28;20188;-24
2023/08/19 04:02:11;;;;;;;7.90;6.60;;;26.90;99.90;;;;;;5068563;28;20199;-24
2023/08/19 04:04:56;;;;;;;8.35;6.70;;;26.90;99.90;;;;;;5050838;28;20639;-24
2023/08/19 04:07:26;;;;;;;9.02;6.22;;;26.90;99.90;;;;;;5068951;28;20211;-23
2023/08/19 04:09:55;;;;;;;6.93;6.22;;;26.90;99.90;;;;;;5068891;28;20748;-23
2023/08/19 04:12:23;;;;;;;9.23;6.43;;;26.90;99.90;;;;;;5068665;28;20211;-23
2023/08/19 04:14:53;;;;;;;8.93;6.55;;;26.90;99.90;;;;;;5050773;28;20703;-24
2023/08/19 04:17:25;;;;;;;10.38;6.75;;;26.90;99.90;;;;;;5070357;28;20225;-23
2023/08/19 04:19:57;;;;;;;9.45;6.40;;;26.90;99.90;;;;;;5088549;28;20202;-24
2023/08/19 04:22:24;;;;;;;8.65;6.38;;;26.90;99.90;;;;;;5070408;28;20219;-24
2023/08/19 04:24:54;;;;;;;9.30;7.00;;;26.90;99.90;;;;;;5088451;28;20683;-24
2023/08/19 04:27:24;;;;;;;10.32;6.72;;;26.90;99.90;;;;;;5070984;28;20199;-24
2023/08/19 04:29:53;;;;;;;8.55;6.68;;;26.90;99.90;;;;;;5070532;28;20219;-24
2023/08/19 04:32:23;;;;;;;8.02;6.28;;;26.90;99.90;;;;;;5088803;28;20256;-23
2023/08/19 04:34:50;;;;;;;9.35;6.45;;;26.90;99.90;;;;;;5070159;28;20596;-24
2023/08/19 04:37:18;;;;;;;7.35;5.85;;;26.90;99.90;;;;;;5069799;28;20238;-24
2023/08/19 04:39:50;;;;;;;6.75;6.07;;;26.90;99.90;;;;;;5070089;28;20292;-24
2023/08/19 04:42:22;;;;;;;8.52;6.43;;;26.90;99.90;;;;;;5088219;28;20199;-24
2023/08/19 04:44:50;;;;;;;7.97;6.50;;;26.90;99.90;;;;;;5069981;28;20284;-24
2023/08/19 04:47:20;;;;;;;10.75;5.97;;;26.90;99.90;;;;;;5088139;28;20248;-23
2023/08/19 04:49:47;;;;;;;10.23;6.80;;;26.90;99.90;;;;;;5087848;28;20701;-23
2023/08/19 04:52:16;;;;;;;7.28;6.35;;;26.90;99.90;;;;;;5088911;28;20218;-24
2023/08/19 04:54:47;;;;;;;8.93;7.72;;;26.90;99.90;;;;;;5053618;28;20684;-23
2023/08/19 04:57:22;;;;;;;9.18;6.72;;;26.90;99.90;;;;;;5053438;28;20214;-24
2023/08/19 04:59:49;;;;;;;9.55;6.57;;;26.90;99.90;;;;;;5069287;28;20683;-23
2023/08/19 05:02:18;;;;;;;7.82;6.47;;;26.90;99.90;;;;;;5087946;28;20199;-23
2023/08/19 05:04:47;;;;;;;7.60;6.25;;;26.90;99.90;;;;;;5088051;28;20210;-23
2023/08/19 05:07:15;;;;;;;8.73;7.05;;;26.90;99.90;;;;;;5069635;28;20750;-23
2023/08/19 05:09:42;;;;;;;8.70;6.70;;;26.90;99.90;;;;;;5069600;28;20641;-23
2023/08/19 05:12:09;;;;;;;8.85;7.10;;;26.90;99.90;;;;;;5087532;28;20293;-23
2023/08/19 05:14:36;;;;;;;8.95;6.95;;;26.90;99.90;;;;;;5069076;28;20222;-24
2023/08/19 05:17:10;;;;;;;9.85;7.28;;;26.90;99.90;;;;;;5069111;28;20210;-23
2023/08/19 05:19:39;;;;;;;7.70;6.75;;;26.90;99.90;;;;;;5087592;28;20198;-23
2023/08/19 05:22:10;;;;;;;8.82;7.00;;;26.90;99.90;;;;;;5069932;28;20320;-23
2023/08/19 05:24:38;;;;;;;9.70;7.10;;;26.90;99.90;;;;;;5087335;28;20225;-23
2023/08/19 05:27:05;;;;;;;8.40;6.93;;;26.90;99.90;;;;;;5069290;28;20191;-32
2023/08/19 05:29:33;;;;;;;10.73;7.00;;;26.90;99.90;;;;;;5069864;28;20519;-32
2023/08/19 05:32:04;;;;;;;7.35;6.60;;;26.90;99.90;;;;;;5053243;28;20191;-32
2023/08/19 05:34:33;;;;;;;10.00;7.45;;;26.90;99.90;;;;;;5052632;28;20194;-32
2023/08/19 05:37:04;;;;;;;7.85;7.03;;;26.90;99.90;;;;;;5068861;28;20752;-32
2023/08/19 05:39:31;;;;;;;9.10;6.78;;;26.90;99.90;;;;;;5087116;28;20233;-32
2023/08/19 05:42:01;;;;;;;10.45;6.82;;;26.90;99.90;;;;;;5068688;28;20989;-32
2023/08/19 05:44:31;;;;;;;8.70;6.80;;;26.90;99.90;;;;;;5086861;28;20227;-32
2023/08/19 05:46:58;;;;;;;7.25;6.38;;;27.00;99.90;;;;;;5068596;28;20668;-32
2023/08/19 05:49:28;;;;;;;7.40;6.28;;;27.00;99.90;;;;;;5087194;28;20203;-32
2023/08/19 05:51:57;;;;;;;10.23;6.28;;;27.00;99.90;;;;;;5068863;28;20806;-32
2023/08/19 05:54:29;;;;;;;7.75;6.38;;;27.00;99.90;;;;;;5068645;28;20206;-32
2023/08/19 05:56:58;;;;;;;8.15;6.50;;;27.00;99.90;;;;;;5069159;28;20215;-32
2023/08/19 05:59:28;;;;;;;7.38;5.97;;;27.10;99.90;;;;;;5052119;28;20574;-32
2023/08/19 06:01:57;;;;;;;7.90;5.88;;;27.10;99.90;;;;;;5052410;28;20195;-32
2023/08/19 06:04:29;;;;;;;11.55;5.72;;;27.10;99.90;;;;;;5086812;28;20203;-32
2023/08/19 06:06:56;;;;;;;10.70;6.30;;;27.20;99.90;;;;;;5086975;28;20571;-32
2023/08/19 06:09:26;;;;;;;8.60;6.00;;;27.20;99.90;;;;;;5086899;28;20250;-32
2023/08/19 06:11:53;;;;;;;8.48;6.10;;;27.30;99.90;;;;;;5067792;28;20202;-23
2023/08/19 06:14:23;;;;;;;8.18;6.28;;;27.30;99.90;;;;;;5068371;28;20210;-32
2023/08/19 06:16:50;;;;;;;6.50;5.20;;;27.30;99.90;;;;;;5068503;28;20264;-33
2023/08/19 06:19:17;;;;;;;8.13;5.32;;;27.30;99.90;;;;;;5068122;28;20322;-32
2023/08/19 06:21:47;;;;;;;12.57;6.68;;;27.40;99.90;;;;;;5086223;28;20647;-32
2023/08/19 06:24:17;;;;;;;9.13;5.47;;;27.40;99.90;;;;;;5068134;28;20498;-32
2023/08/19 06:26:44;;;;;;;6.82;5.50;;;27.40;99.90;;;;;;5086303;28;20348;-33
2023/08/19 06:29:14;;;;;;;8.63;6.10;;;27.50;99.90;;;;;;5051524;28;20195;-32
2023/08/19 06:31:46;;;;;;;6.05;5.38;;;27.50;99.90;;;;;;5068404;28;20288;-32
2023/08/19 06:34:15;;;;;;;6.65;5.30;;;27.50;99.90;;;;;;5086711;28;20615;-32
2023/08/19 06:36:51;;;;;;;6.93;5.15;;;27.50;99.90;;;;;;5068154;28;20198;-32
2023/08/19 06:39:26;;;;;;;6.07;4.90;;;27.60;99.90;;;;;;5085847;28;20258;-32
2023/08/19 06:42:01;;;;;;;5.85;5.25;;;27.60;99.90;;;;;;5086656;28;20203;-32
2023/08/19 06:44:30;;;;;;;6.97;5.15;;;27.60;99.90;;;;;;5067831;28;20235;-32
2023/08/19 06:47:07;;;;;;;7.20;5.38;;;27.60;99.90;;;;;;5085717;28;20195;-33
2023/08/19 06:49:35;;;;;;;7.38;5.90;;;27.70;99.90;;;;;;5086249;28;20317;-32
2023/08/19 06:52:07;;;;;;;7.90;5.85;;;27.70;99.90;;;;;;5067739;28;20260;-32
2023/08/19 06:54:35;;;;;;;8.93;5.53;;;27.70;99.90;;;;;;5067280;28;20232;-32
2023/08/19 06:57:15;;;;;;;9.85;5.57;;;27.80;99.90;;;;;;5068084;28;20254;-32
2023/08/19 06:59:46;;;;;;;8.48;5.30;;;27.80;99.90;;;;;;5085825;28;20226;-32
2023/08/19 07:02:18;;;;;;;8.50;5.25;;;27.80;99.90;;;;;;5085920;28;20252;-32
2023/08/19 07:04:52;;;;;;;7.45;5.57;;;27.90;99.90;;;;;;5085909;28;20214;-32
2023/08/19 07:07:24;;;;;;;8.48;5.47;;;27.90;99.90;;;;;;5034287;28;20237;-32
2023/08/19 07:09:52;;;;;;;7.07;5.40;;;27.90;99.90;;;;;;5085639;28;20203;-32
2023/08/19 07:12:20;;;;;;;6.47;5.50;;;27.90;99.90;;;;;;5067517;28;20191;-32
2023/08/19 07:14:53;;;;;;;8.60;5.70;;;28.00;99.90;;;;;;5068010;28;20249;-32
2023/08/19 07:17:28;;;;;;;8.48;5.80;;;28.00;99.90;;;;;;5067280;28;20688;-32
2023/08/19 07:19:55;;;;;;;8.98;5.82;;;28.10;99.90;;;;;;5067349;28;20652;-32
2023/08/19 07:22:27;;;;;;;7.68;5.90;;;28.10;99.90;;;;;;5086936;28;20198;-32
2023/08/19 07:24:57;;;;;;;10.23;6.15;;;28.10;99.90;;;;;;5071548;28;20202;-32
2023/08/19 07:27:25;;;;;;;7.28;5.93;;;28.20;99.90;;;;;;5089483;28;20191;-32
2023/08/19 07:29:54;;;;;;;6.28;5.68;;;28.20;99.90;;;;;;5089567;28;20264;-32
2023/08/19 07:32:21;;;;;;;6.28;5.38;;;28.20;99.90;;;;;;5089384;28;20194;-32
2023/08/19 07:34:54;;;;;;;7.72;5.90;;;28.30;99.90;;;;;;5089152;28;20203;-32
2023/08/19 07:37:24;;;;;;;8.80;5.90;;;28.30;99.90;;;;;;5070660;28;20684;-32
2023/08/19 07:39:53;;;;;;;7.07;4.97;;;28.30;99.90;;;;;;5071424;28;20695;-32
2023/08/19 07:42:23;;;;;;;7.10;5.00;;;28.30;99.90;;;;;;5089031;28;20479;-32
2023/08/19 07:44:50;;;;;;;7.25;5.78;;;28.30;99.90;;;;;;5070422;28;20242;-32
2023/08/19 07:47:23;;;;;;;7.80;5.28;;;28.40;99.90;;;;;;5088992;28;20733;-32
2023/08/19 07:49:52;;;;;;;10.95;5.57;;;28.40;99.90;;;;;;5071133;28;20211;-32
2023/08/19 07:52:20;;;;;;;8.25;5.25;;;28.50;99.90;;;;;;5070660;28;20191;-32
2023/08/19 07:54:52;;;;;;;7.47;5.05;;;28.50;99.90;;;;;;5089232;28;20262;-32
2023/08/19 07:57:22;;;;;;;8.02;5.82;;;28.60;99.90;;;;;;5055192;28;20199;-32
2023/08/19 07:59:52;;;;;;;8.48;5.72;;;28.70;99.90;;;;;;5089193;28;20234;-32
2023/08/19 08:02:22;;;;;;;6.35;5.43;;;28.70;99.90;;;;;;5071527;28;20409;-32
2023/08/19 08:04:52;;;;;;;5.88;5.28;;;28.80;99.90;;;;;;5088836;28;20206;-32
2023/08/19 08:07:19;;;;;;;6.68;5.40;;;28.90;99.90;;;;;;5088697;28;20272;-32
2023/08/19 08:09:49;;;;;;;8.20;6.05;;;28.90;99.90;;;;;;5070668;28;20199;-32
2023/08/19 08:12:16;;;;;;;7.57;5.50;;;29.00;99.90;;;;;;5088759;28;20203;-32
2023/08/19 08:14:44;;;;;;;7.80;5.50;;;29.00;99.90;;;;;;5088777;28;20271;-32
2023/08/19 08:17:11;;;;;;;7.50;5.50;;;29.10;99.90;;;;;;5088609;28;20225;-32
2023/08/19 08:19:38;;;;;;;6.05;5.43;;;29.10;99.90;;;;;;5087999;28;20219;-33
2023/08/19 08:22:10;;;;;;;6.07;5.50;;;29.10;99.90;;;;;;5088415;28;20716;-32
2023/08/19 08:24:41;;;;;;;12.13;6.05;;;29.10;99.90;;;;;;5070356;28;20607;-33
2023/08/19 08:27:09;;;;;;;6.38;5.63;;;29.20;99.90;;;;;;5070496;28;20214;-32
2023/08/19 08:29:36;;;;;;;6.65;6.05;;;29.20;99.90;;;;;;5070290;28;20202;-33
2023/08/19 08:32:06;;;;;;;9.80;5.70;;;29.10;99.90;;;;;;5088244;28;20199;-32
2023/08/19 08:34:36;;;;;;;6.95;5.50;;;29.10;99.90;;;;;;5069218;28;20215;-33
2023/08/19 08:37:04;;;;;;;8.65;5.80;;;29.10;99.90;;;;;;5088272;28;20207;-33
2023/08/19 08:39:31;;;;;;;10.13;6.45;;;29.10;99.90;;;;;;5069876;28;20227;-32
2023/08/19 08:42:08;;;;;;;8.98;5.70;;;29.10;99.90;;;;;;5054149;28;20203;-32
2023/08/19 08:44:46;;;;;;;7.38;5.65;;;29.20;99.90;;;;;;5069985;28;20624;-32
2023/08/19 08:47:17;;;;;;;11.00;6.30;;;29.20;99.90;;;;;;5087762;28;20588;-33
2023/08/19 08:49:46;;;;;;;7.07;6.13;;;29.20;99.90;;;;;;5069826;28;20276;-32
2023/08/19 08:52:16;;;;;;;7.82;5.50;;;29.20;99.90;;;;;;5070380;28;20290;-32
2023/08/19 08:54:51;;;;;;;7.47;5.95;;;29.20;99.90;;;;;;5069565;28;20661;-33
2023/08/19 08:57:24;;;;;;;6.70;5.93;;;29.30;99.90;;;;;;5087733;28;20293;-32
2023/08/19 08:59:54;;;;;;;7.68;5.45;;;29.30;99.90;;;;;;5087477;28;20272;-32
2023/08/19 09:02:25;;;;;;;8.45;5.85;;;29.30;99.90;;;;;;5087594;28;20215;-32
2023/08/19 09:04:54;;;;;;;8.32;5.70;;;29.30;99.90;;;;;;5070040;28;20191;-32
2023/08/19 09:07:27;;;;;;;6.47;5.70;;;29.40;99.90;;;;;;5088001;28;20423;-32
2023/08/19 09:09:59;;;;;;;8.48;6.38;;;29.40;99.90;;;;;;5069541;28;20731;-32
2023/08/19 09:12:31;;;;;;;10.82;6.25;;;29.50;99.90;;;;;;5087817;28;20217;-32
2023/08/19 09:15:09;;;;;;;9.82;5.72;;;29.50;99.90;;;;;;5069068;28;20198;-32
2023/08/19 09:17:39;;;;;;;7.32;5.88;;;29.50;99.90;;;;;;5087236;28;20198;-32
2023/08/19 09:20:09;;;;;;;7.20;5.30;;;29.50;99.90;;;;;;5069408;28;20242;-32
2023/08/19 09:22:42;;;;;;;9.48;5.72;;;29.50;99.90;;;;;;5087300;28;20205;-32
2023/08/19 09:25:30;;;;;;;7.07;5.43;;;29.60;99.90;;;;;;5087068;28;20754;-32
2023/08/19 09:27:59;;;;;;;6.05;5.45;;;29.60;99.90;;;;;;5087280;28;20264;-32
2023/08/19 09:30:34;;;;;;;10.65;5.78;;;29.60;99.90;;;;;;5069087;28;20272;-32
2023/08/19 09:33:02;;;;;;;6.47;5.72;;;29.70;99.90;;;;;;5068539;28;20197;-32
2023/08/19 09:35:36;;;;;;;7.72;4.93;;;29.70;99.90;;;;;;5069394;28;20184;-23
2023/08/19 09:38:24;;;;;;;9.80;6.10;;;29.70;99.90;;;;;;5086895;28;20380;-23
2023/08/19 09:41:08;;;;;;;5.85;5.13;;;29.70;99.90;;;;;;5068721;28;20202;-23
2023/08/19 09:43:49;;;;;;;7.47;5.10;;;29.70;99.90;;;;;;5086887;28;20241;-24
2023/08/19 09:46:19;;;;;;;5.75;4.95;;;29.70;99.90;;;;;;5068998;28;20590;-32
2023/08/19 09:48:57;;;;;;;6.45;4.60;;;29.70;99.90;;;;;;5087046;28;20289;-32
2023/08/19 09:51:25;;;;;;;6.90;4.90;;;29.70;99.90;;;;;;5086647;28;20211;-32
2023/08/19 09:53:56;;;;;;;6.40;5.22;;;29.70;99.90;;;;;;5068260;28;20586;-32
2023/08/19 09:56:26;;;;;;;5.43;4.93;;;29.70;99.90;;;;;;5086790;28;20963;-32
2023/08/19 09:58:59;;;;;;;5.50;4.53;;;29.70;99.90;;;;;;5086395;28;20211;-32
2023/08/19 10:01:31;;;;;;;6.97;4.97;;;29.70;99.90;;;;;;5086574;28;20417;-32
2023/08/19 10:03:58;;;;;;;5.82;5.28;;;29.70;99.90;;;;;;5068550;28;20226;-32
2023/08/19 10:06:31;;;;;;;7.07;5.65;;;29.80;99.90;;;;;;5067919;28;20199;-32
2023/08/19 10:09:04;;;;;;;6.53;5.38;;;29.80;99.90;;;;;;5086018;28;20211;-32
2023/08/19 10:11:33;;;;;;;6.45;5.18;;;29.80;99.90;;;;;;5067585;28;20696;-32
2023/08/19 10:14:06;;;;;;;8.18;5.40;;;29.90;99.90;;;;;;5068154;28;20207;-32
2023/08/19 10:16:45;;;;;;;6.05;5.22;;;29.90;99.90;;;;;;5086491;28;20207;-32
2023/08/19 10:19:19;;;;;;;8.40;5.80;;;29.90;99.90;;;;;;5067659;28;20648;-32
2023/08/19 10:21:50;;;;;;;7.53;5.93;;;29.90;99.90;;;;;;5086270;28;20215;-32
2023/08/19 10:24:23;;;;;;;7.20;5.50;;;29.90;99.90;;;;;;5068228;28;20673;-33
2023/08/19 10:27:00;;;;;;;8.50;5.57;;;29.90;99.90;;;;;;5085992;28;20759;-32
2023/08/19 10:29:29;;;;;;;8.88;5.80;;;29.90;99.90;;;;;;5067717;28;20194;-32
2023/08/19 10:32:17;;;;;;;7.07;6.10;;;29.90;99.90;;;;;;5068074;28;20239;-32
2023/08/19 10:34:47;;;;;;;7.55;5.50;;;29.90;99.90;;;;;;5085620;28;20609;-32
2023/08/19 10:37:31;;;;;;;9.60;6.15;;;29.90;99.90;;;;;;5067439;28;20203;-32
2023/08/19 10:40:24;;;;;;;8.23;5.82;;;29.90;99.90;;;;;;5067391;28;20222;-32
2023/08/19 10:43:03;;;;;;;6.88;5.85;;;29.90;99.90;;;;;;5085913;28;20227;-32
2023/08/19 10:45:37;;;;;;;7.32;5.70;;;29.90;99.90;;;;;;5085765;28;20321;-32
2023/08/19 10:48:07;;;;;;;8.23;6.07;;;29.80;99.90;;;;;;5067454;28;20241;-32
2023/08/19 10:50:57;;;;;;;7.97;5.65;;;29.80;99.90;;;;;;5067999;28;20198;-32
2023/08/19 10:53:24;;;;;;;6.10;5.50;;;29.80;99.90;;;;;;5085675;28;20211;-32
2023/08/19 10:55:52;;;;;;;6.88;5.80;;;29.70;99.90;;;;;;5050961;28;20277;-32
2023/08/19 10:58:22;;;;;;;7.82;5.40;;;29.60;99.90;;;;;;5067046;28;20207;-32
2023/08/19 11:00:55;;;;;;;7.05;6.03;;;29.60;99.90;;;;;;5067949;28;20557;-32
2023/08/19 11:03:23;;;;;;;7.93;5.65;;;29.50;99.90;;;;;;5085231;28;20203;-32
2023/08/19 11:05:52;;;;;;;6.68;5.70;;;29.50;99.90;;;;;;5085587;28;20601;-32
2023/08/19 11:08:22;;;;;;;6.15;5.20;;;29.40;99.90;;;;;;5085607;28;20201;-32
2023/08/19 11:10:57;;;;;;;7.40;5.82;;;29.30;99.90;;;;;;5085874;28;20275;-32
2023/08/19 11:13:24;;;;;;;5.97;5.43;;;29.30;99.90;;;;;;5085694;28;20647;-32
2023/08/19 11:16:06;;;;;;;6.97;5.53;;;29.30;99.90;;;;;;5067742;28;20293;-32
2023/08/19 11:18:41;;;;;;;6.40;5.80;;;29.30;99.90;;;;;;5067292;28;20202;-32
2023/08/19 11:21:13;;;;;;;7.30;6.00;;;29.20;99.90;;;;;;5067108;28;21090;-32
2023/08/19 11:23:43;;;;;;;6.95;5.32;;;29.20;99.90;;;;;;5085425;28;20253;-32
2023/08/19 11:26:13;;;;;;;7.22;5.63;;;29.20;99.90;;;;;;5085278;28;20219;-33
2023/08/19 11:28:40;;;;;;;5.65;4.90;;;29.10;99.90;;;;;;5067096;28;20191;-32
2023/08/19 11:31:09;;;;;;;5.30;4.78;;;29.10;99.90;;;;;;5050316;28;20207;-32
2023/08/19 11:33:37;;;;;;;6.60;4.60;;;29.10;99.90;;;;;;5085448;28;20214;-32
2023/08/19 11:36:04;;;;;;;6.78;5.28;;;29.10;99.90;;;;;;5067716;28;20199;-32
2023/08/19 11:38:36;;;;;;;6.07;5.00;;;29.10;99.90;;;;;;5066949;28;20211;-32
2023/08/19 11:41:04;;;;;;;5.40;4.88;;;29.20;99.90;;;;;;5066811;28;20617;-32
2023/08/19 11:43:43;;;;;;;5.25;4.75;;;29.10;99.90;;;;;;5066590;28;20298;-32
2023/08/19 11:46:11;;;;;;;9.75;5.40;;;29.20;99.90;;;;;;5085103;28;20235;-32
2023/08/19 11:48:41;;;;;;;7.22;5.43;;;29.10;99.90;;;;;;5050327;28;20211;-32
2023/08/19 11:51:13;;;;;;;7.53;4.82;;;29.10;99.90;;;;;;5066765;28;20207;-32
2023/08/19 11:53:51;;;;;;;6.82;4.35;;;29.10;99.90;;;;;;5052107;28;20207;-32
2023/08/19 11:56:23;;;;;;;6.63;4.30;;;29.10;99.90;;;;;;5066984;28;20207;-32
2023/08/19 11:58:55;;;;;;;4.47;4.00;;;29.10;99.90;;;;;;5066674;28;20225;-33
2023/08/19 12:01:24;;;;;;;5.03;3.83;;;29.00;99.90;;;;;;5085135;28;20199;-32
2023/08/19 12:03:57;;;;;;;4.32;3.47;;;28.90;99.90;;;;;;5067259;28;20201;-32
2023/08/19 12:06:30;;;;;;;3.58;3.25;;;28.80;99.90;;;;;;5084672;28;20219;-32
2023/08/19 12:09:00;;;;;;;4.30;3.50;;;28.80;99.90;;;;;;5087084;28;20638;-32
2023/08/19 12:11:27;;;;;;;4.82;3.45;;;28.70;99.90;;;;;;5054582;28;20699;-32
2023/08/19 12:13:59;;;;;;;6.28;3.13;;;28.70;99.90;;;;;;5088119;28;20264;-32
2023/08/19 12:16:29;;;;;;;4.78;3.10;;;28.70;99.90;;;;;;5088554;28;20206;-32
2023/08/19 12:19:00;;;;;;;3.42;2.95;;;28.60;99.90;;;;;;5088188;28;20639;-32
2023/08/19 12:21:30;;;;;;;3.83;2.70;;;28.60;99.90;;;;;;5087876;28;20230;-32
2023/08/19 12:23:59;;;;;;;4.70;2.97;;;28.60;99.90;;;;;;5052696;28;20218;-32
2023/08/19 12:26:29;;;;;;;4.05;2.88;;;28.50;99.90;;;;;;5088565;28;20206;-32
2023/08/19 12:28:57;;;;;;;4.07;3.00;;;28.50;99.90;;;;;;5068803;28;20210;-32
2023/08/19 12:31:32;;;;;;;4.20;2.88;;;28.40;99.90;;;;;;5069780;28;20222;-32
2023/08/19 12:33:59;;;;;;;4.90;2.85;;;28.40;99.90;;;;;;5088106;28;20202;-32
2023/08/19 12:36:27;;;;;;;3.92;2.53;;;28.30;99.90;;;;;;5087914;28;20243;-32
2023/08/19 12:38:54;;;;;;;4.43;2.90;;;28.30;99.90;;;;;;5065958;28;20257;-32
2023/08/19 12:41:30;;;;;;;3.83;2.33;;;28.20;99.90;;;;;;5083395;28;20692;-32
2023/08/19 12:44:05;;;;;;;4.10;2.22;;;28.20;99.90;;;;;;5087682;28;20307;-32
2023/08/19 12:46:41;;;;;;;6.22;2.45;;;28.00;99.90;;;;;;5069512;28;20301;-32
2023/08/19 12:49:11;;;;;;;2.95;2.33;;;28.00;99.90;;;;;;5053478;28;20504;-32
2023/08/19 12:51:42;;;;;;;4.03;2.33;;;27.90;99.90;;;;;;5053030;28;20202;-32
2023/08/19 12:54:09;;;;;;;4.43;2.25;;;27.80;99.90;;;;;;5069378;28;20270;-32
2023/08/19 12:56:36;;;;;;;3.08;2.15;;;27.80;99.90;;;;;;5069316;28;20187;-32
2023/08/19 12:59:08;;;;;;;2.47;1.92;;;27.80;99.90;;;;;;5069485;28;20203;-32
2023/08/19 13:01:36;;;;;;;4.80;2.40;;;27.70;99.90;;;;;;5069365;28;20592;-32